Terminal Aerodrome Forecast
Issued by NWS

Current Version | Previous Version | Text Only | Print | Product List | Glossary Off
Versions: 1 2 3 4 5 6 7 8 9 10 11 12 13 14 15 16 17 18 19

000
FTUS41 KPBZ 060523
TAFHLG
TAF
KHLG 060523Z 0606/0706 09004KT P6SM SCT090
      TEMPO 0608/0612 4SM BR
     FM061200 13004KT P6SM -SHRA BKN040
     FM061600 19006KT 4SM -SHRA BKN025
     FM062200 21005KT P6SM BKN040=

USA.gov is the U.S. government's official web portal to all federal, state and local government web resources and services.